sensor_id;sensor_type;location;lat;lon;timestamp;temperature;humidity
65568;DHT22;52211;50.154;8.682;2022-08-01T00:01:32;26.60;41.00
65568;DHT22;52211;50.154;8.682;2022-08-01T00:04:01;26.50;41.00
65568;DHT22;52211;50.154;8.682;2022-08-01T00:06:29;26.50;41.40
65568;DHT22;52211;50.154;8.682;2022-08-01T00:08:56;26.50;41.30
65568;DHT22;52211;50.154;8.682;2022-08-01T00:11:23;26.50;41.40
65568;DHT22;52211;50.154;8.682;2022-08-01T00:13:52;26.40;41.40
65568;DHT22;52211;50.154;8.682;2022-08-01T00:16:21;26.40;41.50
65568;DHT22;52211;50.154;8.682;2022-08-01T00:18:50;26.40;41.50
65568;DHT22;52211;50.154;8.682;2022-08-01T00:21:17;26.30;41.60
65568;DHT22;52211;50.154;8.682;2022-08-01T00:23:44;26.20;41.70
65568;DHT22;52211;50.154;8.682;2022-08-01T00:26:16;26.20;41.90
65568;DHT22;52211;50.154;8.682;2022-08-01T00:28:45;26.20;41.90
65568;DHT22;52211;50.154;8.682;2022-08-01T00:31:14;26.20;42.10
65568;DHT22;52211;50.154;8.682;2022-08-01T00:33:41;26.10;42.10
65568;DHT22;52211;50.154;8.682;2022-08-01T00:36:10;26.10;42.30
65568;DHT22;52211;50.154;8.682;2022-08-01T00:38:44;26.10;42.30
65568;DHT22;52211;50.154;8.682;2022-08-01T00:41:11;26.10;42.60
65568;DHT22;52211;50.154;8.682;2022-08-01T00:43:40;26.00;42.60
65568;DHT22;52211;50.154;8.682;2022-08-01T00:46:09;26.00;42.60
65568;DHT22;52211;50.154;8.682;2022-08-01T00:48:39;25.90;42.80
65568;DHT22;52211;50.154;8.682;2022-08-01T00:51:07;25.90;42.80
65568;DHT22;52211;50.154;8.682;2022-08-01T00:53:34;25.90;42.90
65568;DHT22;52211;50.154;8.682;2022-08-01T00:56:17;25.80;42.90
65568;DHT22;52211;50.154;8.682;2022-08-01T00:58:49;25.80;43.00
65568;DHT22;52211;50.154;8.682;2022-08-01T01:01:16;25.80;43.10
65568;DHT22;52211;50.154;8.682;2022-08-01T01:03:48;25.80;43.10
65568;DHT22;52211;50.154;8.682;2022-08-01T01:06:35;25.80;43.50
65568;DHT22;52211;50.154;8.682;2022-08-01T01:09:38;25.70;43.50
65568;DHT22;52211;50.154;8.682;2022-08-01T01:12:17;25.70;43.90
65568;DHT22;52211;50.154;8.682;2022-08-01T01:17:46;25.60;43.90
65568;DHT22;52211;50.154;8.682;2022-08-01T01:20:24;25.60;44.10
65568;DHT22;52211;50.154;8.682;2022-08-01T01:23:12;25.50;43.70
65568;DHT22;52211;50.154;8.682;2022-08-01T01:29:05;25.50;44.30
65568;DHT22;52211;50.154;8.682;2022-08-01T01:32:05;25.50;44.00
65568;DHT22;52211;50.154;8.682;2022-08-01T01:34:40;25.40;44.30
65568;DHT22;52211;50.154;8.682;2022-08-01T01:37:16;25.30;44.10
65568;DHT22;52211;50.154;8.682;2022-08-01T01:39:52;25.30;44.60
65568;DHT22;52211;50.154;8.682;2022-08-01T01:42:22;25.30;44.10
65568;DHT22;52211;50.154;8.682;2022-08-01T01:44:54;25.30;44.40
65568;DHT22;52211;50.154;8.682;2022-08-01T01:47:23;25.20;44.40
65568;DHT22;52211;50.154;8.682;2022-08-01T01:49:54;25.20;44.50
65568;DHT22;52211;50.154;8.682;2022-08-01T01:52:23;25.10;44.60
65568;DHT22;52211;50.154;8.682;2022-08-01T01:54:54;25.10;44.70
65568;DHT22;52211;50.154;8.682;2022-08-01T01:57:23;25.10;44.90
65568;DHT22;52211;50.154;8.682;2022-08-01T01:59:54;25.10;44.90
65568;DHT22;52211;50.154;8.682;2022-08-01T02:02:25;25.10;44.90
65568;DHT22;52211;50.154;8.682;2022-08-01T02:04:55;25.00;45.20
65568;DHT22;52211;50.154;8.682;2022-08-01T02:07:29;25.00;45.00
65568;DHT22;52211;50.154;8.682;2022-08-01T02:09:58;25.00;45.40
65568;DHT22;52211;50.154;8.682;2022-08-01T02:12:34;25.00;45.30
65568;DHT22;52211;50.154;8.682;2022-08-01T02:15:08;24.90;45.70
65568;DHT22;52211;50.154;8.682;2022-08-01T02:17:41;24.90;45.50
65568;DHT22;52211;50.154;8.682;2022-08-01T02:20:13;24.90;45.70
65568;DHT22;52211;50.154;8.682;2022-08-01T02:22:50;24.90;45.60
65568;DHT22;52211;50.154;8.682;2022-08-01T02:25:47;24.80;46.30
65568;DHT22;52211;50.154;8.682;2022-08-01T02:28:50;24.80;46.10
65568;DHT22;52211;50.154;8.682;2022-08-01T02:31:25;24.80;46.10
65568;DHT22;52211;50.154;8.682;2022-08-01T02:34:02;24.80;45.80
65568;DHT22;52211;50.154;8.682;2022-08-01T02:36:36;24.80;46.00
65568;DHT22;52211;50.154;8.682;2022-08-01T02:39:12;24.80;46.30
65568;DHT22;52211;50.154;8.682;2022-08-01T02:41:47;24.80;46.50
65568;DHT22;52211;50.154;8.682;2022-08-01T02:44:28;24.80;46.10
65568;DHT22;52211;50.154;8.682;2022-08-01T02:47:04;24.70;46.50
65568;DHT22;52211;50.154;8.682;2022-08-01T02:49:37;24.70;46.50
65568;DHT22;52211;50.154;8.682;2022-08-01T02:52:11;24.70;46.30
65568;DHT22;52211;50.154;8.682;2022-08-01T02:54:42;24.70;46.40
65568;DHT22;52211;50.154;8.682;2022-08-01T02:57:15;24.70;46.40
65568;DHT22;52211;50.154;8.682;2022-08-01T02:59:47;24.70;46.40
65568;DHT22;52211;50.154;8.682;2022-08-01T03:02:19;24.70;46.50
65568;DHT22;52211;50.154;8.682;2022-08-01T03:04:50;24.60;46.50
65568;DHT22;52211;50.154;8.682;2022-08-01T03:07:27;24.50;46.70
65568;DHT22;52211;50.154;8.682;2022-08-01T03:10:01;24.50;46.90
65568;DHT22;52211;50.154;8.682;2022-08-01T03:12:33;24.50;46.80
65568;DHT22;52211;50.154;8.682;2022-08-01T03:15:05;24.50;46.90
65568;DHT22;52211;50.154;8.682;2022-08-01T03:17:39;24.50;46.90
65568;DHT22;52211;50.154;8.682;2022-08-01T03:20:13;24.40;46.90
65568;DHT22;52211;50.154;8.682;2022-08-01T03:22:44;24.40;47.00
65568;DHT22;52211;50.154;8.682;2022-08-01T03:25:15;24.50;47.30
65568;DHT22;52211;50.154;8.682;2022-08-01T03:27:47;24.50;47.30
65568;DHT22;52211;50.154;8.682;2022-08-01T03:30:22;24.50;47.40
65568;DHT22;52211;50.154;8.682;2022-08-01T03:32:54;24.50;47.40
65568;DHT22;52211;50.154;8.682;2022-08-01T03:35:24;24.50;47.40
65568;DHT22;52211;50.154;8.682;2022-08-01T03:37:56;24.50;47.50
65568;DHT22;52211;50.154;8.682;2022-08-01T03:40:52;24.50;47.50
65568;DHT22;52211;50.154;8.682;2022-08-01T03:43:40;24.50;47.60
65568;DHT22;52211;50.154;8.682;2022-08-01T03:46:17;24.50;48.10
65568;DHT22;52211;50.154;8.682;2022-08-01T03:48:52;24.50;47.60
65568;DHT22;52211;50.154;8.682;2022-08-01T03:51:25;24.60;47.60
65568;DHT22;52211;50.154;8.682;2022-08-01T03:53:57;24.60;47.70
65568;DHT22;52211;50.154;8.682;2022-08-01T03:56:28;24.60;47.70
65568;DHT22;52211;50.154;8.682;2022-08-01T03:59:03;24.60;47.70
65568;DHT22;52211;50.154;8.682;2022-08-01T04:01:31;24.60;47.80
65568;DHT22;52211;50.154;8.682;2022-08-01T04:04:00;24.70;47.90
65568;DHT22;52211;50.154;8.682;2022-08-01T04:06:28;24.70;47.80
65568;DHT22;52211;50.154;8.682;2022-08-01T04:08:57;24.60;47.90
65568;DHT22;52211;50.154;8.682;2022-08-01T04:11:26;24.60;47.90
65568;DHT22;52211;50.154;8.682;2022-08-01T04:13:55;24.60;48.70
65568;DHT22;52211;50.154;8.682;2022-08-01T04:16:24;24.60;48.10
65568;DHT22;52211;50.154;8.682;2022-08-01T04:18:56;24.50;48.30
65568;DHT22;52211;50.154;8.682;2022-08-01T04:21:25;24.50;48.30
65568;DHT22;52211;50.154;8.682;2022-08-01T04:23:59;24.50;48.30
65568;DHT22;52211;50.154;8.682;2022-08-01T04:26:32;24.40;48.40
65568;DHT22;52211;50.154;8.682;2022-08-01T04:29:03;24.40;48.40
65568;DHT22;52211;50.154;8.682;2022-08-01T04:31:36;24.30;48.40
65568;DHT22;52211;50.154;8.682;2022-08-01T04:34:06;24.40;48.70
65568;DHT22;52211;50.154;8.682;2022-08-01T04:36:39;24.30;48.60
65568;DHT22;52211;50.154;8.682;2022-08-01T04:39:09;24.30;48.70
65568;DHT22;52211;50.154;8.682;2022-08-01T04:41:37;24.30;48.80
65568;DHT22;52211;50.154;8.682;2022-08-01T04:44:05;24.30;48.80
65568;DHT22;52211;50.154;8.682;2022-08-01T04:46:33;24.30;48.90
65568;DHT22;52211;50.154;8.682;2022-08-01T04:49:08;24.40;49.00
65568;DHT22;52211;50.154;8.682;2022-08-01T04:51:52;24.30;49.00
65568;DHT22;52211;50.154;8.682;2022-08-01T04:54:33;24.30;49.50
65568;DHT22;52211;50.154;8.682;2022-08-01T04:57:10;24.30;49.00
65568;DHT22;52211;50.154;8.682;2022-08-01T04:59:40;24.40;49.50
65568;DHT22;52211;50.154;8.682;2022-08-01T05:02:19;24.40;49.20
65568;DHT22;52211;50.154;8.682;2022-08-01T05:04:49;24.40;49.40
65568;DHT22;52211;50.154;8.682;2022-08-01T05:07:16;24.40;49.30
65568;DHT22;52211;50.154;8.682;2022-08-01T05:09:47;24.40;49.30
65568;DHT22;52211;50.154;8.682;2022-08-01T05:12:14;24.40;49.40
65568;DHT22;52211;50.154;8.682;2022-08-01T05:14:44;24.40;49.40
65568;DHT22;52211;50.154;8.682;2022-08-01T05:17:12;24.40;49.40
65568;DHT22;52211;50.154;8.682;2022-08-01T05:19:41;24.50;49.40
65568;DHT22;52211;50.154;8.682;2022-08-01T05:22:11;24.50;49.50
65568;DHT22;52211;50.154;8.682;2022-08-01T05:24:39;24.50;49.60
65568;DHT22;52211;50.154;8.682;2022-08-01T05:27:07;24.50;49.60
65568;DHT22;52211;50.154;8.682;2022-08-01T05:29:41;24.50;49.60
65568;DHT22;52211;50.154;8.682;2022-08-01T05:32:10;24.60;49.60
65568;DHT22;52211;50.154;8.682;2022-08-01T05:34:39;24.60;49.60
65568;DHT22;52211;50.154;8.682;2022-08-01T05:37:11;24.60;49.60
65568;DHT22;52211;50.154;8.682;2022-08-01T05:39:40;24.60;49.60
65568;DHT22;52211;50.154;8.682;2022-08-01T05:42:10;24.70;49.80
65568;DHT22;52211;50.154;8.682;2022-08-01T05:44:41;24.70;49.70
65568;DHT22;52211;50.154;8.682;2022-08-01T05:47:10;24.70;49.80
65568;DHT22;52211;50.154;8.682;2022-08-01T05:49:39;24.70;49.70
65568;DHT22;52211;50.154;8.682;2022-08-01T05:52:09;24.70;49.70
65568;DHT22;52211;50.154;8.682;2022-08-01T05:54:41;24.70;49.70
65568;DHT22;52211;50.154;8.682;2022-08-01T05:57:10;24.70;49.80
65568;DHT22;52211;50.154;8.682;2022-08-01T05:59:38;24.70;49.90
65568;DHT22;52211;50.154;8.682;2022-08-01T06:02:04;24.80;49.90
65568;DHT22;52211;50.154;8.682;2022-08-01T06:04:32;24.80;49.90
65568;DHT22;52211;50.154;8.682;2022-08-01T06:07:01;24.90;50.00
65568;DHT22;52211;50.154;8.682;2022-08-01T06:09:28;24.90;49.90
65568;DHT22;52211;50.154;8.682;2022-08-01T06:11:57;24.90;49.80
65568;DHT22;52211;50.154;8.682;2022-08-01T06:14:24;24.90;49.80
65568;DHT22;52211;50.154;8.682;2022-08-01T06:16:51;25.00;50.00
65568;DHT22;52211;50.154;8.682;2022-08-01T06:19:25;25.10;50.00
65568;DHT22;52211;50.154;8.682;2022-08-01T06:21:55;25.10;50.00
65568;DHT22;52211;50.154;8.682;2022-08-01T06:24:21;25.10;49.90
65568;DHT22;52211;50.154;8.682;2022-08-01T06:26:54;25.10;49.90
65568;DHT22;52211;50.154;8.682;2022-08-01T06:29:20;25.10;50.10
65568;DHT22;52211;50.154;8.682;2022-08-01T06:31:47;25.20;50.70
65568;DHT22;52211;50.154;8.682;2022-08-01T06:34:16;25.20;50.00
65568;DHT22;52211;50.154;8.682;2022-08-01T06:36:43;25.20;50.00
65568;DHT22;52211;50.154;8.682;2022-08-01T06:39:12;25.20;50.00
65568;DHT22;52211;50.154;8.682;2022-08-01T06:41:39;25.20;50.10
65568;DHT22;52211;50.154;8.682;2022-08-01T06:44:10;25.30;50.20
65568;DHT22;52211;50.154;8.682;2022-08-01T06:46:37;25.30;50.20
65568;DHT22;52211;50.154;8.682;2022-08-01T06:49:06;25.30;50.10
65568;DHT22;52211;50.154;8.682;2022-08-01T06:51:38;25.40;50.30
65568;DHT22;52211;50.154;8.682;2022-08-01T06:54:04;25.50;50.30
65568;DHT22;52211;50.154;8.682;2022-08-01T06:56:36;25.50;50.30
65568;DHT22;52211;50.154;8.682;2022-08-01T06:59:02;25.60;50.40
65568;DHT22;52211;50.154;8.682;2022-08-01T07:01:30;25.60;50.20
65568;DHT22;52211;50.154;8.682;2022-08-01T07:04:01;25.70;50.90
65568;DHT22;52211;50.154;8.682;2022-08-01T07:06:31;25.80;50.20
65568;DHT22;52211;50.154;8.682;2022-08-01T07:08:58;25.80;50.20
65568;DHT22;52211;50.154;8.682;2022-08-01T07:11:36;25.80;50.00
65568;DHT22;52211;50.154;8.682;2022-08-01T07:14:05;25.80;50.00
65568;DHT22;52211;50.154;8.682;2022-08-01T07:16:37;25.80;50.80
65568;DHT22;52211;50.154;8.682;2022-08-01T07:19:06;25.80;50.20
65568;DHT22;52211;50.154;8.682;2022-08-01T07:21:34;25.90;50.20
65568;DHT22;52211;50.154;8.682;2022-08-01T07:24:08;25.90;50.20
65568;DHT22;52211;50.154;8.682;2022-08-01T07:26:44;25.90;50.20
65568;DHT22;52211;50.154;8.682;2022-08-01T07:29:26;25.90;50.10
65568;DHT22;52211;50.154;8.682;2022-08-01T07:31:55;26.00;50.20
65568;DHT22;52211;50.154;8.682;2022-08-01T07:34:23;26.00;50.00
65568;DHT22;52211;50.154;8.682;2022-08-01T07:36:52;26.10;50.10
65568;DHT22;52211;50.154;8.682;2022-08-01T07:39:19;26.20;50.10
65568;DHT22;52211;50.154;8.682;2022-08-01T07:41:46;26.20;50.10
65568;DHT22;52211;50.154;8.682;2022-08-01T07:44:33;26.30;50.10
65568;DHT22;52211;50.154;8.682;2022-08-01T07:47:03;26.40;50.10
65568;DHT22;52211;50.154;8.682;2022-08-01T07:49:34;26.50;50.10
65568;DHT22;52211;50.154;8.682;2022-08-01T07:52:08;26.60;49.90
65568;DHT22;52211;50.154;8.682;2022-08-01T07:54:35;26.70;49.80
65568;DHT22;52211;50.154;8.682;2022-08-01T07:57:03;26.80;49.70
65568;DHT22;52211;50.154;8.682;2022-08-01T07:59:32;26.90;49.60
65568;DHT22;52211;50.154;8.682;2022-08-01T08:01:59;27.00;49.70
65568;DHT22;52211;50.154;8.682;2022-08-01T08:04:27;27.10;49.60
65568;DHT22;52211;50.154;8.682;2022-08-01T08:06:57;27.20;49.60
65568;DHT22;52211;50.154;8.682;2022-08-01T08:09:23;27.30;49.40
65568;DHT22;52211;50.154;8.682;2022-08-01T08:11:53;27.40;49.20
65568;DHT22;52211;50.154;8.682;2022-08-01T08:14:22;27.40;48.90
65568;DHT22;52211;50.154;8.682;2022-08-01T08:16:58;27.50;48.90
65568;DHT22;52211;50.154;8.682;2022-08-01T08:19:27;27.50;49.00
65568;DHT22;52211;50.154;8.682;2022-08-01T08:22:05;27.60;48.90
65568;DHT22;52211;50.154;8.682;2022-08-01T08:24:34;27.70;48.90
65568;DHT22;52211;50.154;8.682;2022-08-01T08:27:12;27.70;48.80
65568;DHT22;52211;50.154;8.682;2022-08-01T08:29:42;27.90;48.60
65568;DHT22;52211;50.154;8.682;2022-08-01T08:32:09;28.00;48.50
65568;DHT22;52211;50.154;8.682;2022-08-01T08:34:36;28.00;48.20
65568;DHT22;52211;50.154;8.682;2022-08-01T08:37:04;28.10;48.20
65568;DHT22;52211;50.154;8.682;2022-08-01T08:39:35;28.10;48.10
65568;DHT22;52211;50.154;8.682;2022-08-01T08:42:09;28.10;48.00
65568;DHT22;52211;50.154;8.682;2022-08-01T08:44:38;28.10;48.00
65568;DHT22;52211;50.154;8.682;2022-08-01T08:47:13;28.10;48.00
65568;DHT22;52211;50.154;8.682;2022-08-01T08:49:47;28.10;47.90
65568;DHT22;52211;50.154;8.682;2022-08-01T08:52:21;28.00;47.90
65568;DHT22;52211;50.154;8.682;2022-08-01T08:54:54;28.00;47.90
65568;DHT22;52211;50.154;8.682;2022-08-01T08:57:25;28.00;47.90
65568;DHT22;52211;50.154;8.682;2022-08-01T08:59:52;28.00;47.90
65568;DHT22;52211;50.154;8.682;2022-08-01T09:02:21;28.00;48.00
65568;DHT22;52211;50.154;8.682;2022-08-01T09:04:49;28.00;47.90
65568;DHT22;52211;50.154;8.682;2022-08-01T09:07:18;28.00;47.90
65568;DHT22;52211;50.154;8.682;2022-08-01T09:09:49;28.00;47.90
65568;DHT22;52211;50.154;8.682;2022-08-01T09:12:19;28.00;47.70
65568;DHT22;52211;50.154;8.682;2022-08-01T09:14:51;28.00;47.70
65568;DHT22;52211;50.154;8.682;2022-08-01T09:17:20;28.00;47.70
65568;DHT22;52211;50.154;8.682;2022-08-01T09:19:50;28.10;47.80
65568;DHT22;52211;50.154;8.682;2022-08-01T09:22:25;28.10;47.90
65568;DHT22;52211;50.154;8.682;2022-08-01T09:27:33;28.20;47.60
65568;DHT22;52211;50.154;8.682;2022-08-01T09:30:12;28.30;47.80
65568;DHT22;52211;50.154;8.682;2022-08-01T09:32:57;28.30;47.40
65568;DHT22;52211;50.154;8.682;2022-08-01T09:35:31;28.40;47.20
65568;DHT22;52211;50.154;8.682;2022-08-01T09:41:00;28.50;47.10
65568;DHT22;52211;50.154;8.682;2022-08-01T09:43:29;28.50;46.70
65568;DHT22;52211;50.154;8.682;2022-08-01T09:46:20;28.60;46.90
65568;DHT22;52211;50.154;8.682;2022-08-01T09:51:39;28.60;46.60
65568;DHT22;52211;50.154;8.682;2022-08-01T09:54:31;28.60;46.60
65568;DHT22;52211;50.154;8.682;2022-08-01T09:57:17;28.60;46.50
65568;DHT22;52211;50.154;8.682;2022-08-01T09:59:47;28.60;46.40
65568;DHT22;52211;50.154;8.682;2022-08-01T10:05:06;28.80;46.40
65568;DHT22;52211;50.154;8.682;2022-08-01T10:07:54;28.90;46.30
65568;DHT22;52211;50.154;8.682;2022-08-01T10:10:33;29.00;46.20
65568;DHT22;52211;50.154;8.682;2022-08-01T10:13:06;29.10;46.10
65568;DHT22;52211;50.154;8.682;2022-08-01T10:15:42;29.20;45.90
65568;DHT22;52211;50.154;8.682;2022-08-01T10:18:13;29.30;45.90
65568;DHT22;52211;50.154;8.682;2022-08-01T10:20:54;29.40;45.70
65568;DHT22;52211;50.154;8.682;2022-08-01T10:23:25;29.50;45.50
65568;DHT22;52211;50.154;8.682;2022-08-01T10:26:10;29.60;45.40
65568;DHT22;52211;50.154;8.682;2022-08-01T10:28:44;29.70;45.10
65568;DHT22;52211;50.154;8.682;2022-08-01T10:31:13;29.90;45.10
65568;DHT22;52211;50.154;8.682;2022-08-01T10:33:43;30.00;45.10
65568;DHT22;52211;50.154;8.682;2022-08-01T10:36:21;30.10;44.90
65568;DHT22;52211;50.154;8.682;2022-08-01T10:38:52;30.10;44.50
65568;DHT22;52211;50.154;8.682;2022-08-01T10:41:21;30.20;44.50
65568;DHT22;52211;50.154;8.682;2022-08-01T10:43:55;30.30;44.50
65568;DHT22;52211;50.154;8.682;2022-08-01T10:46:23;30.30;44.40
65568;DHT22;52211;50.154;8.682;2022-08-01T10:51:27;30.60;45.10
65568;DHT22;52211;50.154;8.682;2022-08-01T10:54:15;30.80;44.20
65568;DHT22;52211;50.154;8.682;2022-08-01T10:56:46;30.90;44.10
65568;DHT22;52211;50.154;8.682;2022-08-01T10:59:24;31.00;43.50
65568;DHT22;52211;50.154;8.682;2022-08-01T11:02:26;31.10;42.90
65568;DHT22;52211;50.154;8.682;2022-08-01T11:05:04;31.10;42.70
65568;DHT22;52211;50.154;8.682;2022-08-01T11:07:44;31.10;42.50
65568;DHT22;52211;50.154;8.682;2022-08-01T11:12:51;31.00;42.40
65568;DHT22;52211;50.154;8.682;2022-08-01T11:15:20;31.00;42.60
65568;DHT22;52211;50.154;8.682;2022-08-01T11:17:58;30.80;42.30
65568;DHT22;52211;50.154;8.682;2022-08-01T11:20:29;30.80;42.40
65568;DHT22;52211;50.154;8.682;2022-08-01T11:28:28;30.50;42.70
65568;DHT22;52211;50.154;8.682;2022-08-01T11:44:09;31.10;42.40
65568;DHT22;52211;50.154;8.682;2022-08-01T11:52:01;32.10;41.90
65568;DHT22;52211;50.154;8.682;2022-08-01T11:59:41;33.00;41.00
65568;DHT22;52211;50.154;8.682;2022-08-01T12:02:31;33.20;40.40
65568;DHT22;52211;50.154;8.682;2022-08-01T12:05:01;33.50;40.30
65568;DHT22;52211;50.154;8.682;2022-08-01T12:07:36;33.70;39.80
65568;DHT22;52211;50.154;8.682;2022-08-01T12:10:08;34.00;39.70
65568;DHT22;52211;50.154;8.682;2022-08-01T12:12:42;34.20;39.50
65568;DHT22;52211;50.154;8.682;2022-08-01T12:15:24;34.50;39.20
65568;DHT22;52211;50.154;8.682;2022-08-01T12:18:03;34.80;39.10
65568;DHT22;52211;50.154;8.682;2022-08-01T12:20:39;35.00;38.10
65568;DHT22;52211;50.154;8.682;2022-08-01T12:23:22;35.20;37.70
65568;DHT22;52211;50.154;8.682;2022-08-01T12:25:52;35.20;37.60
65568;DHT22;52211;50.154;8.682;2022-08-01T12:28:20;35.00;36.90
65568;DHT22;52211;50.154;8.682;2022-08-01T12:30:51;34.90;36.90
65568;DHT22;52211;50.154;8.682;2022-08-01T12:33:20;34.80;36.80
65568;DHT22;52211;50.154;8.682;2022-08-01T12:35:48;34.60;36.80
65568;DHT22;52211;50.154;8.682;2022-08-01T12:38:22;34.40;36.50
65568;DHT22;52211;50.154;8.682;2022-08-01T12:40:53;34.20;36.70
65568;DHT22;52211;50.154;8.682;2022-08-01T12:43:23;34.10;36.80
65568;DHT22;52211;50.154;8.682;2022-08-01T12:45:59;34.10;36.90
65568;DHT22;52211;50.154;8.682;2022-08-01T12:48:27;34.10;36.50
65568;DHT22;52211;50.154;8.682;2022-08-01T12:50:57;34.10;36.10
65568;DHT22;52211;50.154;8.682;2022-08-01T12:53:27;33.90;36.40
65568;DHT22;52211;50.154;8.682;2022-08-01T12:56:08;33.90;36.60
65568;DHT22;52211;50.154;8.682;2022-08-01T12:58:40;33.80;36.50
65568;DHT22;52211;50.154;8.682;2022-08-01T13:01:12;33.70;36.60
65568;DHT22;52211;50.154;8.682;2022-08-01T13:03:57;33.70;36.60
65568;DHT22;52211;50.154;8.682;2022-08-01T13:06:29;33.70;36.50
65568;DHT22;52211;50.154;8.682;2022-08-01T13:09:10;33.60;36.30
65568;DHT22;52211;50.154;8.682;2022-08-01T13:11:42;33.70;36.40
65568;DHT22;52211;50.154;8.682;2022-08-01T13:14:30;33.70;36.60
65568;DHT22;52211;50.154;8.682;2022-08-01T13:16:59;33.80;36.50
65568;DHT22;52211;50.154;8.682;2022-08-01T13:19:44;33.90;36.40
65568;DHT22;52211;50.154;8.682;2022-08-01T13:22:13;33.90;36.10
65568;DHT22;52211;50.154;8.682;2022-08-01T13:24:45;33.80;35.60
65568;DHT22;52211;50.154;8.682;2022-08-01T13:27:20;33.70;35.60
65568;DHT22;52211;50.154;8.682;2022-08-01T13:29:50;33.50;35.60
65568;DHT22;52211;50.154;8.682;2022-08-01T13:32:21;33.30;35.50
65568;DHT22;52211;50.154;8.682;2022-08-01T13:35:06;33.20;35.60
65568;DHT22;52211;50.154;8.682;2022-08-01T13:37:40;32.90;35.50
65568;DHT22;52211;50.154;8.682;2022-08-01T13:40:11;32.70;35.50
65568;DHT22;52211;50.154;8.682;2022-08-01T13:42:51;32.50;36.40
65568;DHT22;52211;50.154;8.682;2022-08-01T13:45:25;32.40;36.00
65568;DHT22;52211;50.154;8.682;2022-08-01T13:47:52;32.30;36.20
65568;DHT22;52211;50.154;8.682;2022-08-01T13:50:41;32.30;36.30
65568;DHT22;52211;50.154;8.682;2022-08-01T13:53:07;32.20;36.30
65568;DHT22;52211;50.154;8.682;2022-08-01T13:55:37;32.10;36.30
65568;DHT22;52211;50.154;8.682;2022-08-01T13:58:04;32.00;36.30
65568;DHT22;52211;50.154;8.682;2022-08-01T14:00:31;31.90;36.20
65568;DHT22;52211;50.154;8.682;2022-08-01T14:02:58;31.80;36.20
65568;DHT22;52211;50.154;8.682;2022-08-01T14:05:25;31.70;36.10
65568;DHT22;52211;50.154;8.682;2022-08-01T14:07:59;31.60;36.20
65568;DHT22;52211;50.154;8.682;2022-08-01T14:10:29;31.50;36.30
65568;DHT22;52211;50.154;8.682;2022-08-01T14:12:58;31.40;36.40
65568;DHT22;52211;50.154;8.682;2022-08-01T14:15:27;31.20;36.50
65568;DHT22;52211;50.154;8.682;2022-08-01T14:18:04;31.10;36.60
65568;DHT22;52211;50.154;8.682;2022-08-01T14:20:38;31.00;36.70
65568;DHT22;52211;50.154;8.682;2022-08-01T14:23:10;30.90;36.70
65568;DHT22;52211;50.154;8.682;2022-08-01T14:25:43;30.80;36.80
65568;DHT22;52211;50.154;8.682;2022-08-01T14:28:35;30.70;37.00
65568;DHT22;52211;50.154;8.682;2022-08-01T14:31:06;30.60;37.10
65568;DHT22;52211;50.154;8.682;2022-08-01T14:33:36;30.60;37.30
65568;DHT22;52211;50.154;8.682;2022-08-01T14:36:03;30.50;37.40
65568;DHT22;52211;50.154;8.682;2022-08-01T14:38:50;30.50;37.50
65568;DHT22;52211;50.154;8.682;2022-08-01T14:41:29;30.40;37.60
65568;DHT22;52211;50.154;8.682;2022-08-01T14:44:00;30.50;37.80
65568;DHT22;52211;50.154;8.682;2022-08-01T14:46:30;30.50;38.00
65568;DHT22;52211;50.154;8.682;2022-08-01T14:48:59;30.60;38.10
65568;DHT22;52211;50.154;8.682;2022-08-01T14:51:26;30.80;38.00
65568;DHT22;52211;50.154;8.682;2022-08-01T14:53:53;30.90;37.90
65568;DHT22;52211;50.154;8.682;2022-08-01T14:56:20;31.10;37.90
65568;DHT22;52211;50.154;8.682;2022-08-01T14:58:49;31.20;37.70
65568;DHT22;52211;50.154;8.682;2022-08-01T15:01:18;31.40;37.80
65568;DHT22;52211;50.154;8.682;2022-08-01T15:03:45;31.60;37.70
65568;DHT22;52211;50.154;8.682;2022-08-01T15:06:16;31.80;37.50
65568;DHT22;52211;50.154;8.682;2022-08-01T15:08:44;31.90;37.30
65568;DHT22;52211;50.154;8.682;2022-08-01T15:11:11;32.00;37.00
65568;DHT22;52211;50.154;8.682;2022-08-01T15:13:38;32.00;36.80
65568;DHT22;52211;50.154;8.682;2022-08-01T15:16:08;32.00;36.60
65568;DHT22;52211;50.154;8.682;2022-08-01T15:18:37;31.90;36.50
65568;DHT22;52211;50.154;8.682;2022-08-01T15:21:08;31.90;36.60
65568;DHT22;52211;50.154;8.682;2022-08-01T15:23:52;31.80;36.70
65568;DHT22;52211;50.154;8.682;2022-08-01T15:26:21;31.80;36.80
65568;DHT22;52211;50.154;8.682;2022-08-01T15:28:51;31.70;36.90
65568;DHT22;52211;50.154;8.682;2022-08-01T15:31:23;31.70;37.00
65568;DHT22;52211;50.154;8.682;2022-08-01T15:33:53;31.60;36.80
65568;DHT22;52211;50.154;8.682;2022-08-01T15:36:24;31.60;36.90
65568;DHT22;52211;50.154;8.682;2022-08-01T15:38:54;31.60;36.90
65568;DHT22;52211;50.154;8.682;2022-08-01T15:41:24;31.70;36.90
65568;DHT22;52211;50.154;8.682;2022-08-01T15:43:55;31.80;36.70
65568;DHT22;52211;50.154;8.682;2022-08-01T15:46:24;31.90;36.60
65568;DHT22;52211;50.154;8.682;2022-08-01T15:48:51;32.00;36.40
65568;DHT22;52211;50.154;8.682;2022-08-01T15:51:18;32.00;36.20
65568;DHT22;52211;50.154;8.682;2022-08-01T15:53:47;32.00;36.00
65568;DHT22;52211;50.154;8.682;2022-08-01T15:56:16;32.00;36.20
65568;DHT22;52211;50.154;8.682;2022-08-01T15:58:46;31.90;36.20
65568;DHT22;52211;50.154;8.682;2022-08-01T16:01:13;31.90;36.00
65568;DHT22;52211;50.154;8.682;2022-08-01T16:03:44;31.90;36.30
65568;DHT22;52211;50.154;8.682;2022-08-01T16:06:11;31.90;36.30
65568;DHT22;52211;50.154;8.682;2022-08-01T16:08:40;31.80;36.20
65568;DHT22;52211;50.154;8.682;2022-08-01T16:11:07;31.80;36.30
65568;DHT22;52211;50.154;8.682;2022-08-01T16:13:36;31.80;36.30
65568;DHT22;52211;50.154;8.682;2022-08-01T16:16:10;31.80;36.40
65568;DHT22;52211;50.154;8.682;2022-08-01T16:18:38;31.70;36.40
65568;DHT22;52211;50.154;8.682;2022-08-01T16:21:07;31.70;36.50
65568;DHT22;52211;50.154;8.682;2022-08-01T16:23:38;31.60;36.30
65568;DHT22;52211;50.154;8.682;2022-08-01T16:26:06;31.60;36.20
65568;DHT22;52211;50.154;8.682;2022-08-01T16:28:53;31.50;36.20
65568;DHT22;52211;50.154;8.682;2022-08-01T16:31:23;31.30;36.80
65568;DHT22;52211;50.154;8.682;2022-08-01T16:34:12;31.30;36.10
65568;DHT22;52211;50.154;8.682;2022-08-01T16:36:41;31.10;36.10
65568;DHT22;52211;50.154;8.682;2022-08-01T16:39:09;31.10;36.20
65568;DHT22;52211;50.154;8.682;2022-08-01T16:41:35;31.10;36.10
65568;DHT22;52211;50.154;8.682;2022-08-01T16:44:05;31.10;36.10
65568;DHT22;52211;50.154;8.682;2022-08-01T16:46:39;31.00;36.10
65568;DHT22;52211;50.154;8.682;2022-08-01T16:49:09;31.00;36.00
65568;DHT22;52211;50.154;8.682;2022-08-01T16:51:40;30.90;36.20
65568;DHT22;52211;50.154;8.682;2022-08-01T16:54:13;30.90;36.20